Time;durP1;ratioP1;P1;durP2;ratioP2;P2;SDS_P1;SDS_P2;PMS_P1;PMS_P2;Temp;Humidity;BMP_temperature;BMP_pressure;BME280_temperature;BME280_humidity;BME280_pressure;Samples;Min_cycle;Max_cycle;Signal;HPM_P1;HPM_P2
2024/01/05 00:00:49;;;;;;;;;3.00;2.00;;;;;11.48;67.42;99438.13;5032999;28;56901;-71
2024/01/05 00:03:15;;;;;;;;;4.00;1.50;;;;;11.45;67.51;99430.44;5029259;28;45285;-70
2024/01/05 00:05:40;;;;;;;;;1.00;0.00;;;;;11.45;67.30;99432.22;5033159;28;70124;-70
2024/01/05 00:08:06;;;;;;;;;1.00;0.00;;;;;11.44;67.34;99434.00;5026081;28;46420;-71
2024/01/05 00:10:31;;;;;;;;;4.50;1.00;;;;;11.46;66.81;99442.59;5023362;28;45263;-71
2024/01/05 00:12:57;;;;;;;;;1.50;0.00;;;;;11.46;66.35;99447.00;5002743;28;45732;-71
2024/01/05 00:15:22;;;;;;;;;3.00;0.00;;;;;11.44;66.86;99441.84;5012747;28;45448;-70
2024/01/05 00:17:47;;;;;;;;;3.00;0.25;;;;;11.46;66.76;99447.84;5021702;28;46303;-70
2024/01/05 00:20:13;;;;;;;;;0.50;0.50;;;;;11.48;66.54;99455.63;5038989;28;54073;-69
2024/01/05 00:22:38;;;;;;;;;1.00;0.00;;;;;11.49;66.45;99467.78;5038539;28;45284;-70
2024/01/05 00:25:04;;;;;;;;;1.00;1.00;;;;;11.50;66.35;99453.78;5021513;28;54030;-71
2024/01/05 00:27:29;;;;;;;;;4.75;0.25;;;;;11.50;66.60;99451.16;5039336;28;47184;-69
2024/01/05 00:29:55;;;;;;;;;1.00;0.00;;;;;11.53;66.56;99453.63;5018407;28;45226;-71
2024/01/05 00:32:21;;;;;;;;;0.25;0.25;;;;;11.54;66.37;99456.16;5018004;28;45895;-71
2024/01/05 00:34:46;;;;;;;;;3.00;0.00;;;;;11.55;66.29;99452.59;5021071;28;45392;-70
2024/01/05 00:37:11;;;;;;;;;1.25;0.00;;;;;11.57;66.08;99460.38;5039644;28;45273;-70
2024/01/05 00:39:37;;;;;;;;;0.00;0.00;;;;;11.58;66.10;99451.63;5033491;28;72197;-71
2024/01/05 00:42:02;;;;;;;;;1.00;1.00;;;;;11.59;65.82;99459.38;5038193;28;45359;-71
2024/01/05 00:44:28;;;;;;;;;1.00;0.75;;;;;11.59;65.58;99471.63;5039013;28;45324;-70
2024/01/05 00:46:53;;;;;;;;;0.75;0.75;;;;;11.58;65.50;99462.09;5038413;28;45820;-70
2024/01/05 00:49:19;;;;;;;;;1.00;1.00;;;;;11.58;65.70;99469.97;5035100;28;73240;-70
2024/01/05 00:51:44;;;;;;;;;1.00;0.00;;;;;11.56;65.69;99464.78;5035769;28;57247;-70
2024/01/05 00:54:09;;;;;;;;;1.00;0.75;;;;;11.59;65.53;99469.00;5033697;28;57716;-70
2024/01/05 00:56:35;;;;;;;;;1.00;0.25;;;;;11.58;65.57;99470.78;5025605;28;70652;-70
2024/01/05 00:59:00;;;;;;;;;1.75;1.00;;;;;11.59;65.48;99471.63;5037260;28;73052;-71
2024/01/05 01:01:25;;;;;;;;;1.50;0.50;;;;;11.60;65.28;99475.97;5037302;28;47481;-70
2024/01/05 01:03:51;;;;;;;;;0.00;0.00;;;;;11.58;65.06;99475.19;5034970;28;72988;-71
2024/01/05 01:06:16;;;;;;;;;2.00;0.00;;;;;11.61;65.00;99476.81;5014567;28;69250;-70
2024/01/05 01:08:42;;;;;;;;;3.00;0.75;;;;;11.58;64.41;99470.78;5036431;28;69561;-70
2024/01/05 01:11:17;;;;;;;;;1.00;0.00;;;;;11.59;63.77;99482.13;5019235;28;69324;-70
2024/01/05 01:13:43;;;;;;;;;0.00;0.00;;;;;11.58;63.74;99485.69;5021728;28;64982;-70
2024/01/05 01:16:09;;;;;;;;;0.75;0.00;;;;;11.55;61.98;99499.75;5037980;28;46122;-70
2024/01/05 01:18:34;;;;;;;;;1.00;0.00;;;;;11.50;62.07;99487.84;5023910;28;45228;-70
2024/01/05 01:21:00;;;;;;;;;0.00;0.00;;;;;11.43;61.76;99504.78;5019890;28;64557;-69
2024/01/05 01:23:25;;;;;;;;;0.25;0.00;;;;;11.41;61.03;99504.88;5038616;28;66762;-70
2024/01/05 01:25:51;;;;;;;;;0.75;0.00;;;;;11.38;61.00;99505.00;5041016;28;73663;-71
2024/01/05 01:28:16;;;;;;;;;1.00;0.00;;;;;11.37;61.34;99496.31;5023106;28;46449;-70
2024/01/05 01:30:41;;;;;;;;;0.00;0.00;;;;;11.37;61.43;99504.16;5031110;28;67061;-70
2024/01/05 01:33:07;;;;;;;;;1.00;0.00;;;;;11.38;60.28;99498.03;5023850;28;45721;-70
2024/01/05 01:35:32;;;;;;;;;0.00;0.00;;;;;11.36;59.80;99512.09;5040789;28;45350;-71
2024/01/05 01:37:57;;;;;;;;;0.00;0.00;;;;;11.34;59.92;99500.84;5035883;28;68859;-70
2024/01/05 01:40:25;;;;;;;;;0.25;0.00;;;;;11.32;59.13;99503.56;5042701;28;45350;-70
2024/01/05 01:42:51;;;;;;;;;0.00;0.00;;;;;11.29;59.34;99508.09;5030228;28;45313;-70
2024/01/05 01:45:16;;;;;;;;;0.00;0.00;;;;;11.26;58.75;99503.00;5040321;28;72263;-69
2024/01/05 01:47:42;;;;;;;;;0.00;0.00;;;;;11.25;59.27;99515.25;5028452;28;45500;-70
2024/01/05 01:50:08;;;;;;;;;0.00;0.00;;;;;11.21;58.82;99514.56;5036908;28;63631;-71
2024/01/05 01:52:34;;;;;;;;;0.00;0.00;;;;;11.19;59.64;99512.91;5036642;28;45381;-70
2024/01/05 01:54:59;;;;;;;;;0.00;0.00;;;;;11.19;59.12;99511.16;5024238;28;45243;-71
2024/01/05 01:57:25;;;;;;;;;0.00;0.00;;;;;11.18;59.05;99516.47;5029383;28;61592;-70
2024/01/05 01:59:51;;;;;;;;;2.00;0.00;;;;;11.16;59.04;99520.94;5010008;28;57809;-70
2024/01/05 02:02:16;;;;;;;;;0.00;0.00;;;;;11.14;58.54;99514.94;5038035;28;45392;-71
2024/01/05 02:04:42;;;;;;;;;1.00;0.00;;;;;11.12;59.25;99525.50;5022265;28;46230;-70
2024/01/05 02:07:08;;;;;;;;;0.00;0.00;;;;;11.12;59.08;99516.75;5030640;28;72046;-70
2024/01/05 02:09:34;;;;;;;;;0.50;0.00;;;;;11.12;58.55;99519.38;5025792;28;45266;-71
2024/01/05 02:12:00;;;;;;;;;2.00;0.00;;;;;11.12;58.74;99520.25;5021700;28;64427;-71
2024/01/05 02:14:25;;;;;;;;;0.00;0.00;;;;;11.15;59.02;99511.38;5021330;28;45425;-71
2024/01/05 02:16:50;;;;;;;;;0.00;0.00;;;;;11.16;59.18;99513.09;5034733;28;58931;-71
2024/01/05 02:19:16;;;;;;;;;0.25;0.00;;;;;11.19;58.88;99512.91;5022064;28;45369;-71
2024/01/05 02:21:46;;;;;;;;;0.00;0.00;;;;;11.18;58.76;99513.88;5032129;28;54525;-71
2024/01/05 02:24:12;;;;;;;;;1.00;0.00;;;;;11.19;59.03;99513.78;5020607;28;45487;-71
2024/01/05 02:26:39;;;;;;;;;0.00;0.00;;;;;11.19;58.50;99507.69;5035499;28;73304;-70
2024/01/05 02:29:04;;;;;;;;;0.00;0.00;;;;;11.18;58.50;99509.47;5029548;28;45321;-70
2024/01/05 02:31:29;;;;;;;;;0.00;0.00;;;;;11.14;58.64;99513.16;5023684;28;45595;-70
2024/01/05 02:33:55;;;;;;;;;0.00;0.00;;;;;11.13;58.08;99516.69;5019316;28;73800;-70
2024/01/05 02:36:20;;;;;;;;;0.00;0.00;;;;;11.14;58.11;99525.41;5032840;28;69972;-71
2024/01/05 02:38:45;;;;;;;;;2.00;0.00;;;;;11.09;58.03;99528.25;5029427;28;52101;-69
2024/01/05 02:41:11;;;;;;;;;0.00;0.00;;;;;11.09;58.51;99525.63;5040852;28;45340;-70
2024/01/05 02:43:36;;;;;;;;;0.00;0.00;;;;;11.04;57.09;99535.47;5032417;28;65985;-70
2024/01/05 02:46:01;;;;;;;;;0.75;0.00;;;;;11.06;57.82;99532.78;5035255;28;54668;-71
2024/01/05 02:48:27;;;;;;;;;1.00;0.00;;;;;11.03;57.37;99528.56;5035415;28;47856;-70
2024/01/05 02:50:52;;;;;;;;;1.00;0.00;;;;;10.99;57.53;99522.59;5021126;28;70724;-69
2024/01/05 02:53:17;;;;;;;;;0.50;0.00;;;;;10.95;57.30;99526.28;5019865;28;78007;-70
2024/01/05 02:55:43;;;;;;;;;0.00;0.00;;;;;10.93;57.69;99528.13;5035487;28;51345;-69
2024/01/05 02:58:08;;;;;;;;;0.50;0.00;;;;;10.92;57.63;99528.22;5039660;28;45408;-70
2024/01/05 03:00:35;;;;;;;;;0.00;0.00;;;;;10.90;57.43;99536.13;5039831;28;62079;-70
2024/01/05 03:03:00;;;;;;;;;0.00;0.00;;;;;10.86;57.08;99531.97;5040515;28;45226;-70
2024/01/05 03:05:25;;;;;;;;;0.00;0.00;;;;;10.84;57.56;99533.81;5027601;28;63293;-70
2024/01/05 03:07:51;;;;;;;;;0.00;0.00;;;;;10.83;57.76;99529.50;5027897;28;55454;-70
2024/01/05 03:10:16;;;;;;;;;0.00;0.00;;;;;10.83;57.79;99530.34;5038589;28;45563;-70
2024/01/05 03:12:41;;;;;;;;;0.00;0.00;;;;;10.85;57.89;99545.97;5006514;28;75698;-69
2024/01/05 03:15:07;;;;;;;;;0.00;0.00;;;;;10.86;58.07;99544.22;5033628;28;45436;-70
2024/01/05 03:17:33;;;;;;;;;0.00;0.00;;;;;10.89;58.06;99541.44;5031104;28;45463;-71
2024/01/05 03:19:58;;;;;;;;;1.00;0.00;;;;;10.88;58.21;99548.44;5039760;28;54101;-72
2024/01/05 03:22:23;;;;;;;;;0.00;0.00;;;;;10.87;58.08;99544.16;5022475;28;45358;-71
2024/01/05 03:24:49;;;;;;;;;0.00;0.00;;;;;10.87;58.39;99546.78;5020186;28;71288;-71
2024/01/05 03:27:14;;;;;;;;;0.50;0.00;;;;;10.88;58.27;99543.22;5021265;28;68301;-71
2024/01/05 03:29:40;;;;;;;;;1.50;0.00;;;;;10.87;57.77;99541.53;5005805;28;45669;-69
2024/01/05 03:32:07;;;;;;;;;1.00;0.00;;;;;10.86;58.39;99552.91;5021841;28;48044;-70
2024/01/05 03:34:32;;;;;;;;;0.00;0.00;;;;;10.86;58.35;99546.84;5039080;28;45607;-70
2024/01/05 03:36:57;;;;;;;;;1.00;0.00;;;;;10.82;58.15;99536.50;5038386;28;61065;-71
2024/01/05 03:39:23;;;;;;;;;0.00;0.00;;;;;10.80;58.32;99546.19;5022499;28;73256;-70
2024/01/05 03:41:49;;;;;;;;;0.00;0.00;;;;;10.78;58.17;99552.41;5028214;28;46170;-70
2024/01/05 03:44:20;;;;;;;;;0.00;0.00;;;;;10.77;58.36;99548.97;5038546;28;45244;-71
2024/01/05 03:46:49;;;;;;;;;0.00;0.00;;;;;10.75;58.61;99544.72;5039607;28;45372;-71
2024/01/05 03:49:15;;;;;;;;;0.00;0.00;;;;;10.71;58.65;99545.78;5038284;28;45459;-70
2024/01/05 03:51:40;;;;;;;;;0.00;0.00;;;;;10.69;58.74;99542.38;5034881;28;45322;-70
2024/01/05 03:54:05;;;;;;;;;0.00;0.00;;;;;10.60;58.71;99544.50;5033291;28;45305;-69
2024/01/05 03:56:41;;;;;;;;;0.25;0.00;;;;;10.50;58.73;99545.88;5034617;28;45399;-69
2024/01/05 03:59:07;;;;;;;;;0.00;0.00;;;;;10.40;59.03;99548.03;5021335;28;45471;-71
2024/01/05 04:01:33;;;;;;;;;0.00;0.00;;;;;10.31;59.51;99553.69;5040541;28;45429;-70
2024/01/05 04:03:59;;;;;;;;;0.00;0.00;;;;;10.24;59.82;99560.06;5038115;28;45306;-70
2024/01/05 04:06:24;;;;;;;;;0.00;0.00;;;;;10.20;60.25;99563.75;5037330;28;45388;-71
2024/01/05 04:08:51;;;;;;;;;1.00;0.00;;;;;10.17;60.44;99562.09;5029277;28;45487;-70
2024/01/05 04:11:20;;;;;;;;;0.00;0.00;;;;;10.14;60.20;99574.47;5028130;28;46624;-70
2024/01/05 04:13:46;;;;;;;;;0.00;0.00;;;;;10.10;60.67;99565.91;5004854;28;45869;-71
2024/01/05 04:16:11;;;;;;;;;0.25;0.00;;;;;10.06;60.52;99573.03;5039389;28;45313;-70
2024/01/05 04:18:36;;;;;;;;;0.00;0.00;;;;;10.02;60.78;99574.09;5018215;28;73011;-70
2024/01/05 04:21:02;;;;;;;;;0.00;0.00;;;;;9.99;61.23;99571.59;5028299;28;68318;-71
2024/01/05 04:23:27;;;;;;;;;0.00;0.00;;;;;9.95;60.87;99571.78;5034876;28;45400;-70
2024/01/05 04:25:52;;;;;;;;;0.00;0.00;;;;;9.89;60.99;99575.53;5028160;28;64753;-71
2024/01/05 04:28:18;;;;;;;;;0.00;0.00;;;;;9.85;61.07;99573.97;5024335;28;45477;-70
2024/01/05 04:30:43;;;;;;;;;1.25;0.00;;;;;9.79;60.87;99567.25;5034359;28;45288;-70
2024/01/05 04:33:08;;;;;;;;;1.00;0.00;;;;;9.75;61.28;99565.66;5036228;28;72902;-70
2024/01/05 04:35:34;;;;;;;;;2.25;0.00;;;;;9.72;61.46;99564.94;5010037;28;64326;-70
2024/01/05 04:37:59;;;;;;;;;0.00;0.00;;;;;9.68;61.34;99566.84;5036272;28;45513;-69
2024/01/05 04:40:24;;;;;;;;;0.00;0.00;;;;;9.66;61.39;99573.88;5039032;28;60212;-70
2024/01/05 04:42:50;;;;;;;;;0.75;0.00;;;;;9.62;61.52;99569.72;5023094;28;58613;-70
2024/01/05 04:45:16;;;;;;;;;0.00;0.00;;;;;9.58;61.63;99570.72;5027698;28;45455;-70
2024/01/05 04:47:42;;;;;;;;;0.00;0.00;;;;;9.55;61.76;99571.72;5037949;28;45254;-70
2024/01/05 04:50:09;;;;;;;;;0.50;0.00;;;;;9.54;61.81;99577.00;5018223;28;46834;-69
2024/01/05 04:52:35;;;;;;;;;0.00;0.00;;;;;9.50;62.00;99576.28;5022281;28;45650;-69
2024/01/05 04:55:00;;;;;;;;;1.00;0.00;;;;;9.48;61.82;99572.91;5039375;28;45257;-68
2024/01/05 04:57:26;;;;;;;;;1.00;0.00;;;;;9.46;61.60;99579.94;5038176;28;45591;-69
2024/01/05 04:59:51;;;;;;;;;0.25;0.00;;;;;9.43;61.81;99577.47;5042587;28;46189;-69
2024/01/05 05:02:16;;;;;;;;;0.00;0.00;;;;;9.40;61.90;99593.25;5041725;28;55453;-69
2024/01/05 05:04:42;;;;;;;;;0.50;0.00;;;;;9.38;62.00;99588.06;5040435;28;69034;-68
2024/01/05 05:07:07;;;;;;;;;0.00;0.00;;;;;9.35;62.14;99585.63;5023355;28;69740;-68
2024/01/05 05:09:32;;;;;;;;;0.00;0.00;;;;;9.33;62.13;99592.66;5026944;28;45317;-68
2024/01/05 05:11:58;;;;;;;;;0.00;0.00;;;;;9.33;62.41;99595.28;5029395;28;73283;-69
2024/01/05 05:14:23;;;;;;;;;3.00;0.00;;;;;9.29;62.21;99594.50;5042498;28;45281;-69
2024/01/05 05:16:48;;;;;;;;;0.00;0.00;;;;;9.27;62.20;99590.28;5041447;28;45250;-70
2024/01/05 05:19:14;;;;;;;;;0.00;0.00;;;;;9.27;62.28;99593.72;5030182;28;45313;-70
2024/01/05 05:21:39;;;;;;;;;0.00;0.00;;;;;9.25;62.21;99594.72;5026873;28;53879;-70
2024/01/05 05:24:04;;;;;;;;;0.00;0.00;;;;;9.23;62.55;99592.16;5034516;28;49104;-70
2024/01/05 05:26:30;;;;;;;;;0.00;0.00;;;;;9.20;62.64;99588.81;5034667;28;72176;-70
2024/01/05 05:28:55;;;;;;;;;0.00;0.00;;;;;9.19;62.74;99595.81;5022511;28;46985;-70
2024/01/05 05:31:20;;;;;;;;;1.00;0.00;;;;;9.17;62.63;99600.25;5024165;28;45450;-70
2024/01/05 05:33:46;;;;;;;;;0.75;0.00;;;;;9.16;63.00;99593.31;5016780;28;62883;-70
2024/01/05 05:36:11;;;;;;;;;0.50;0.00;;;;;9.15;63.07;99594.22;5034972;28;63883;-70
2024/01/05 05:38:36;;;;;;;;;0.00;0.00;;;;;9.13;63.29;99598.66;5024653;28;71806;-70
2024/01/05 05:41:02;;;;;;;;;1.00;0.00;;;;;9.10;63.16;99591.81;5027487;28;71750;-70
2024/01/05 05:43:28;;;;;;;;;1.00;0.00;;;;;9.10;63.32;99593.53;5007732;28;45305;-70
2024/01/05 05:45:53;;;;;;;;;0.00;0.00;;;;;9.09;63.21;99599.69;5021864;28;45239;-69
2024/01/05 05:48:19;;;;;;;;;0.00;0.00;;;;;9.08;63.36;99588.41;5022248;28;46200;-71
2024/01/05 05:50:44;;;;;;;;;0.00;0.00;;;;;9.06;63.58;99591.97;5025384;28;45316;-70
2024/01/05 05:53:10;;;;;;;;;0.50;0.00;;;;;9.04;63.34;99597.25;5032798;28;45226;-70
2024/01/05 05:55:37;;;;;;;;;1.00;0.00;;;;;9.03;63.55;99598.19;5040239;28;45256;-70
2024/01/05 05:58:03;;;;;;;;;0.00;0.00;;;;;9.01;63.49;99599.13;5023498;28;73739;-70
2024/01/05 06:00:34;;;;;;;;;2.75;0.00;;;;;9.00;63.63;99607.88;5023581;28;45374;-70
2024/01/05 06:03:00;;;;;;;;;1.00;0.00;;;;;8.97;63.56;99616.66;5035690;28;45571;-71
2024/01/05 06:05:26;;;;;;;;;0.75;0.00;;;;;8.96;63.75;99611.50;5035015;28;45804;-70
2024/01/05 06:07:51;;;;;;;;;0.50;0.00;;;;;8.97;63.89;99631.47;5027911;28;45580;-70
2024/01/05 06:10:16;;;;;;;;;0.00;0.00;;;;;8.95;64.18;99625.47;5039509;28;73168;-70
2024/01/05 06:12:42;;;;;;;;;0.00;0.00;;;;;8.95;64.12;99626.31;5008990;28;58662;-70
2024/01/05 06:15:07;;;;;;;;;0.50;0.00;;;;;8.94;64.13;99632.44;5030252;28;70918;-70
2024/01/05 06:17:33;;;;;;;;;1.00;0.00;;;;;8.92;64.47;99635.13;5034309;28;46419;-71
2024/01/05 06:19:58;;;;;;;;;0.00;0.00;;;;;8.91;64.24;99641.25;5022093;28;63573;-70
2024/01/05 06:22:23;;;;;;;;;1.00;0.00;;;;;8.90;64.36;99641.28;5022687;28;45275;-71
2024/01/05 06:24:49;;;;;;;;;2.00;0.00;;;;;8.89;64.70;99642.22;5041449;28;45465;-70
2024/01/05 06:27:14;;;;;;;;;0.00;0.00;;;;;8.92;64.45;99644.69;5040994;28;46425;-70
2024/01/05 06:29:39;;;;;;;;;0.00;0.00;;;;;8.95;64.65;99641.13;5027331;28;45275;-69
2024/01/05 06:32:05;;;;;;;;;0.00;0.00;;;;;8.94;64.42;99645.47;5031726;28;53054;-69
2024/01/05 06:34:31;;;;;;;;;1.00;0.00;;;;;8.95;64.85;99644.59;5001176;28;45534;-69
2024/01/05 06:36:56;;;;;;;;;0.00;0.00;;;;;8.93;64.91;99643.78;5020748;28;66169;-70
2024/01/05 06:39:22;;;;;;;;;0.00;0.00;;;;;8.93;64.81;99649.00;5037645;28;45325;-69
2024/01/05 06:41:47;;;;;;;;;0.75;0.00;;;;;8.90;64.83;99649.97;5033324;28;66509;-65
2024/01/05 06:44:13;;;;;;;;;0.50;0.00;;;;;8.88;64.82;99641.34;5034015;28;59982;-63
2024/01/05 06:46:38;;;;;;;;;1.00;0.00;;;;;8.88;65.15;99643.13;5028339;28;47021;-71
2024/01/05 06:49:03;;;;;;;;;0.25;0.00;;;;;8.88;65.33;99651.78;5037957;28;70108;-73
2024/01/05 06:51:36;;;;;;;;;0.00;0.00;;;;;8.86;65.66;99653.59;5003512;28;64760;-75
2024/01/05 06:54:01;;;;;;;;;1.25;0.00;;;;;8.84;65.87;99652.81;5035196;28;46042;-74
2024/01/05 06:56:31;;;;;;;;;1.00;0.50;;;;;8.83;65.68;99663.31;5023104;28;45306;-72
2024/01/05 06:58:57;;;;;;;;;0.50;0.00;;;;;8.80;66.02;99659.06;5039319;28;45577;-71
2024/01/05 07:01:22;;;;;;;;;1.25;0.00;;;;;8.80;66.07;99660.81;5038939;28;68295;-72
2024/01/05 07:03:48;;;;;;;;;0.00;0.00;;;;;8.76;66.03;99667.03;5023030;28;45467;-73
2024/01/05 07:06:13;;;;;;;;;2.00;0.00;;;;;8.76;66.25;99670.50;5021195;28;54278;-71
2024/01/05 07:08:39;;;;;;;;;0.00;0.00;;;;;8.73;66.37;99665.41;5037108;28;72898;-72
2024/01/05 07:11:04;;;;;;;;;0.00;0.00;;;;;8.72;66.33;99663.69;5010229;28;45321;-73
2024/01/05 07:13:30;;;;;;;;;3.50;0.00;;;;;8.70;66.61;99674.19;5022682;28;45464;-73
2024/01/05 07:15:55;;;;;;;;;0.00;0.00;;;;;8.69;66.62;99672.50;5014179;28;48067;-66
2024/01/05 07:18:20;;;;;;;;;0.00;0.00;;;;;8.66;66.65;99667.38;5037207;28;66376;-66
2024/01/05 07:20:46;;;;;;;;;0.00;0.00;;;;;8.65;66.82;99673.50;5028396;28;64852;-68
2024/01/05 07:23:11;;;;;;;;;1.50;0.00;;;;;8.64;66.79;99670.94;5026212;28;72115;-70
2024/01/05 07:25:36;;;;;;;;;1.25;0.00;;;;;8.62;66.93;99668.38;5002385;28;75956;-71
2024/01/05 07:28:02;;;;;;;;;0.00;0.00;;;;;8.61;66.98;99681.50;5021635;28;72495;-71
2024/01/05 07:30:27;;;;;;;;;1.00;0.00;;;;;8.57;67.02;99680.78;5021341;28;45779;-70
2024/01/05 07:32:52;;;;;;;;;1.00;1.00;;;;;8.55;66.90;99688.63;5026766;28;45218;-72
2024/01/05 07:35:18;;;;;;;;;1.00;1.00;;;;;8.53;67.45;99690.47;4998923;28;67865;-70
2024/01/05 07:37:43;;;;;;;;;0.75;0.75;;;;;8.52;67.36;99693.97;5017303;28;68717;-71
2024/01/05 07:40:09;;;;;;;;;0.25;0.25;;;;;8.52;67.55;99695.72;5020185;28;45307;-70
2024/01/05 07:42:35;;;;;;;;;1.00;0.00;;;;;8.49;67.60;99694.06;5020078;28;45427;-71
2024/01/05 07:45:00;;;;;;;;;1.50;1.00;;;;;8.47;67.76;99692.41;5014731;28;67966;-71
2024/01/05 07:47:25;;;;;;;;;1.00;0.75;;;;;8.47;67.71;99700.25;5006102;28;60023;-72
2024/01/05 07:49:51;;;;;;;;;1.00;1.00;;;;;8.44;67.80;99689.91;5019743;28;45289;-72
2024/01/05 07:52:17;;;;;;;;;2.00;0.00;;;;;8.43;67.94;99696.91;5006296;28;61234;-71
2024/01/05 07:54:43;;;;;;;;;1.50;0.00;;;;;8.42;67.87;99697.78;5017843;28;75687;-72
2024/01/05 07:57:08;;;;;;;;;0.50;0.00;;;;;8.41;67.96;99701.28;5011650;28;45527;-70
2024/01/05 07:59:34;;;;;;;;;2.00;2.00;;;;;8.40;68.02;99699.56;5019242;28;45327;-70
2024/01/05 08:01:59;;;;;;;;;2.00;1.00;;;;;8.41;68.07;99703.00;5019058;28;45340;-71
2024/01/05 08:04:24;;;;;;;;;51.00;37.00;;;;;8.42;68.16;99702.13;5016267;28;47095;-72
2024/01/05 08:06:50;;;;;;;;;50.50;36.00;;;;;8.42;68.39;99704.72;5010261;28;62663;-71
2024/01/05 08:09:17;;;;;;;;;0.00;0.00;;;;;8.42;68.43;99704.72;5016076;28;45297;-72
2024/01/05 08:11:43;;;;;;;;;1.00;1.00;;;;;8.40;68.24;99710.00;5009527;28;45544;-71
2024/01/05 08:14:08;;;;;;;;;3.75;0.00;;;;;8.39;68.47;99715.25;5012958;28;46303;-71
2024/01/05 08:16:33;;;;;;;;;1.00;1.00;;;;;8.38;68.58;99714.41;5010552;28;45403;-70
2024/01/05 08:18:59;;;;;;;;;1.75;1.75;;;;;8.38;68.44;99721.41;5016609;28;45452;-70
2024/01/05 08:21:24;;;;;;;;;4.00;1.00;;;;;8.36;68.32;99722.28;5007212;28;53055;-71
2024/01/05 08:23:49;;;;;;;;;2.25;1.00;;;;;8.38;68.53;99721.41;5012932;28;54512;-70
2024/01/05 08:26:18;;;;;;;;;2.00;0.00;;;;;8.40;68.55;99722.19;5012351;28;63712;-69
2024/01/05 08:28:44;;;;;;;;;2.00;1.00;;;;;8.39;68.64;99725.69;5007963;28;45554;-70
2024/01/05 08:31:09;;;;;;;;;2.00;1.00;;;;;8.38;68.72;99722.25;5006666;28;45506;-70
2024/01/05 08:33:35;;;;;;;;;1.75;1.75;;;;;8.38;68.59;99724.00;4989625;28;46428;-70
2024/01/05 08:36:00;;;;;;;;;1.00;1.00;;;;;8.38;68.75;99716.19;5027405;28;68735;-71
2024/01/05 08:38:26;;;;;;;;;64.00;44.00;;;;;8.38;68.77;99724.84;5038709;28;45507;-71
2024/01/05 08:40:52;;;;;;;;;12.25;9.00;;;;;8.38;68.84;99722.25;5042024;28;72935;-71
2024/01/05 08:43:18;;;;;;;;;4.00;2.00;;;;;8.41;68.67;99729.97;5022763;28;46070;-71
2024/01/05 08:45:44;;;;;;;;;2.50;1.00;;;;;8.40;68.68;99724.78;5039525;28;45441;-70
2024/01/05 08:48:11;;;;;;;;;2.75;1.50;;;;;8.40;68.76;99716.97;5024250;28;45524;-70
2024/01/05 08:50:37;;;;;;;;;3.00;1.75;;;;;8.41;68.78;99719.53;5024913;28;45538;-70
2024/01/05 08:53:02;;;;;;;;;3.00;1.50;;;;;8.43;68.70;99735.13;5034321;28;45996;-71
2024/01/05 08:55:28;;;;;;;;;1.50;1.00;;;;;8.44;68.57;99736.84;5018290;28;45458;-71
2024/01/05 08:57:53;;;;;;;;;3.75;2.25;;;;;8.46;68.77;99745.47;5042696;28;45298;-70
2024/01/05 09:00:19;;;;;;;;;1.75;1.00;;;;;8.48;68.67;99751.47;5008030;28;45234;-70
2024/01/05 09:02:44;;;;;;;;;3.50;1.00;;;;;8.51;68.44;99751.38;5021601;28;48246;-70
2024/01/05 09:05:11;;;;;;;;;8.25;3.00;;;;;8.50;68.71;99750.53;5039168;28;71132;-71
2024/01/05 09:07:36;;;;;;;;;3.50;2.00;;;;;8.53;68.66;99746.94;5026823;28;45459;-71
2024/01/05 09:10:02;;;;;;;;;2.50;2.00;;;;;8.55;68.58;99748.63;5035017;28;45261;-70
2024/01/05 09:12:27;;;;;;;;;2.50;1.00;;;;;8.57;68.26;99760.72;5037171;28;62591;-70
2024/01/05 09:14:53;;;;;;;;;3.25;1.50;;;;;8.57;68.53;99761.59;5040625;28;45257;-71
2024/01/05 09:17:18;;;;;;;;;2.00;1.00;;;;;8.60;68.54;99765.84;5040365;28;45408;-71
2024/01/05 09:19:44;;;;;;;;;0.75;0.75;;;;;8.61;68.36;99767.56;5027069;28;61766;-71
2024/01/05 09:22:10;;;;;;;;;1.00;1.00;;;;;8.63;68.47;99770.97;5035686;28;45377;-71
2024/01/05 09:24:36;;;;;;;;;3.75;2.00;;;;;8.63;68.35;99769.19;5032753;28;45384;-71
2024/01/05 09:27:02;;;;;;;;;4.75;2.00;;;;;8.63;68.48;99774.41;5030941;28;45455;-71
2024/01/05 09:29:28;;;;;;;;;2.75;1.00;;;;;8.66;68.42;99774.31;5024414;28;45531;-70
2024/01/05 09:31:53;;;;;;;;;4.00;1.00;;;;;8.68;68.25;99775.13;5028886;28;45412;-70
2024/01/05 09:34:19;;;;;;;;;1.75;1.00;;;;;8.72;68.05;99778.47;5023403;28;71739;-70
2024/01/05 09:36:44;;;;;;;;;6.25;2.00;;;;;8.74;68.17;99779.25;5038684;28;45440;-70
2024/01/05 09:39:13;;;;;;;;;1.00;1.00;;;;;8.77;68.06;99786.16;5034721;28;45501;-70
2024/01/05 09:41:42;;;;;;;;;2.25;1.00;;;;;8.79;67.88;99790.38;5028081;28;46065;-69
2024/01/05 09:44:10;;;;;;;;;5.00;2.00;;;;;8.86;67.93;99801.47;5025598;28;45853;-70
2024/01/05 09:46:40;;;;;;;;;5.00;3.00;;;;;8.94;68.02;99796.81;5036121;28;45354;-70
2024/01/05 09:49:08;;;;;;;;;4.00;2.00;;;;;8.99;67.66;99800.13;5008388;28;45425;-72
2024/01/05 09:51:35;;;;;;;;;1.00;1.00;;;;;9.03;67.53;99800.84;5010156;28;45518;-71
2024/01/05 09:54:01;;;;;;;;;5.25;4.00;;;;;9.06;67.16;99812.03;5030451;28;45435;-71
2024/01/05 09:56:27;;;;;;;;;5.75;2.00;;;;;9.11;67.44;99814.50;5024440;28;45558;-72
2024/01/05 09:58:53;;;;;;;;;3.50;2.25;;;;;9.16;67.18;99809.97;5028713;28;45312;-73
2024/01/05 10:01:26;;;;;;;;;3.00;3.00;;;;;9.21;67.44;99795.00;5041888;28;45369;-72
2024/01/05 10:03:56;;;;;;;;;5.50;4.00;;;;;9.29;67.46;99805.97;5012110;28;45941;-71
2024/01/05 10:06:21;;;;;;;;;2.25;2.25;;;;;9.36;67.44;99806.63;5021879;28;45408;-68
2024/01/05 10:08:50;;;;;;;;;2.00;2.00;;;;;9.41;66.66;99806.47;5022100;28;45604;-77
2024/01/05 10:11:27;;;;;;;;;2.00;0.25;;;;;9.45;66.49;99810.66;5032420;28;45598;-68
2024/01/05 10:13:54;;;;;;;;;3.00;2.00;;;;;9.46;66.03;99814.97;5040082;28;45582;-74
2024/01/05 10:16:23;;;;;;;;;4.50;3.00;;;;;9.47;66.02;99825.38;5013164;28;45247;-68
2024/01/05 10:18:49;;;;;;;;;4.00;3.00;;;;;9.50;66.17;99819.16;5031757;28;45323;-74
2024/01/05 10:21:14;;;;;;;;;5.00;3.00;;;;;9.57;65.94;99831.09;5041654;28;45453;-68
2024/01/05 10:23:41;;;;;;;;;3.00;2.00;;;;;9.64;65.61;99829.94;5038171;28;54638;-72
2024/01/05 10:26:15;;;;;;;;;6.25;2.00;;;;;9.73;65.71;99820.06;5030478;28;45577;-68
2024/01/05 10:28:40;;;;;;;;;2.00;2.00;;;;;9.76;65.20;99820.81;5028113;28;45441;-67
2024/01/05 10:31:13;;;;;;;;;3.00;2.50;;;;;9.81;65.00;99818.88;5040519;28;45476;-67
2024/01/05 10:33:55;;;;;;;;;2.25;2.00;;;;;9.89;64.84;99816.78;5028253;28;45372;-70
2024/01/05 10:36:24;;;;;;;;;2.00;1.00;;;;;10.01;64.93;99810.25;5040665;28;45242;-68
2024/01/05 10:38:50;;;;;;;;;3.25;1.00;;;;;10.12;64.65;99809.81;5036337;28;45458;-69
2024/01/05 10:41:16;;;;;;;;;2.50;1.00;;;;;10.17;64.53;99801.78;5031200;28;46133;-66
2024/01/05 10:43:42;;;;;;;;;3.00;2.00;;;;;10.18;64.16;99801.72;5035881;28;45772;-66
2024/01/05 10:46:11;;;;;;;;;5.00;2.25;;;;;10.22;64.09;99805.06;5024095;28;68138;-68
2024/01/05 10:48:38;;;;;;;;;2.50;1.00;;;;;10.26;64.54;99804.88;5006604;28;45434;-69
2024/01/05 10:51:05;;;;;;;;;3.75;2.00;;;;;10.29;64.19;99801.28;5014817;28;47311;-67
2024/01/05 10:53:31;;;;;;;;;4.25;1.00;;;;;10.31;63.39;99799.50;5039548;28;45904;-67
2024/01/05 10:55:57;;;;;;;;;2.75;2.00;;;;;10.33;63.95;99797.66;5019364;28;45400;-67
2024/01/05 10:58:22;;;;;;;;;7.00;2.00;;;;;10.38;64.20;99797.50;5021500;28;73991;-67
2024/01/05 11:00:48;;;;;;;;;5.75;3.75;;;;;10.41;63.63;99808.69;5031902;28;68373;-67
2024/01/05 11:03:14;;;;;;;;;4.25;3.00;;;;;10.45;63.68;99794.53;5025411;28;45721;-68
2024/01/05 11:05:41;;;;;;;;;1.25;1.00;;;;;10.49;62.86;99799.66;5039701;28;45306;-68
2024/01/05 11:08:13;;;;;;;;;2.25;2.00;;;;;10.51;63.12;99792.59;5013634;28;45913;-67
2024/01/05 11:10:53;;;;;;;;;2.00;2.00;;;;;10.50;62.84;99796.97;5035384;28;45284;-68
2024/01/05 11:13:48;;;;;;;;;3.50;2.00;;;;;10.49;62.34;99797.03;5018573;28;45972;-68
2024/01/05 11:16:41;;;;;;;;;10.25;5.50;;;;;10.50;61.69;99796.09;5015526;28;45525;-68
2024/01/05 11:19:15;;;;;;;;;2.25;2.00;;;;;10.56;62.09;99803.72;5020610;28;45427;-68
2024/01/05 11:21:54;;;;;;;;;5.00;1.50;;;;;10.57;61.90;99808.88;5020291;28;46197;-68
2024/01/05 11:24:20;;;;;;;;;3.50;2.25;;;;;10.64;62.20;99802.47;5019703;28;45469;-68
2024/01/05 11:26:45;;;;;;;;;3.75;2.00;;;;;10.72;62.22;99809.16;5017764;28;45387;-68
2024/01/05 11:29:12;;;;;;;;;2.00;1.00;;;;;10.74;61.88;99804.69;5036409;28;45519;-66
2024/01/05 11:31:47;;;;;;;;;3.00;2.00;;;;;10.73;61.72;99800.38;5036820;28;47128;-68